createdAt,value
2019-03-06T00:02:17.795Z,100677.41
2019-03-06T00:04:49.213Z,100683.53
2019-03-06T00:07:20.596Z,100685.23
2019-03-06T00:09:51.923Z,100693.57
2019-03-06T00:12:24.509Z,100688.26
2019-03-06T00:14:55.815Z,100694.34
2019-03-06T00:17:27.154Z,100693.86
2019-03-06T00:19:58.462Z,100693.05
2019-03-06T00:22:29.859Z,100693.47
2019-03-06T00:25:01.239Z,100693.47
2019-03-06T00:27:32.675Z,100697.48
2019-03-06T00:30:04.491Z,100698.16
2019-03-06T00:32:35.925Z,100694.63
2019-03-06T00:35:11.419Z,100697.38
2019-03-06T00:37:43.726Z,100701.39
2019-03-06T00:40:24.298Z,100707.62
2019-03-06T00:42:55.736Z,100710.42
2019-03-06T00:45:27.087Z,100703.10
2019-03-06T00:47:58.545Z,100698.41
2019-03-06T00:50:29.872Z,100705.70
2019-03-06T00:53:01.488Z,100699.61
2019-03-06T00:55:32.937Z,100706.12
2019-03-06T00:58:04.323Z,100705.61
2019-03-06T01:00:35.603Z,100706.80
2019-03-06T01:03:07.342Z,100705.78
2019-03-06T01:05:38.732Z,100706.60
2019-03-06T01:08:10.751Z,100715.19
2019-03-06T01:10:42.219Z,100705.05
2019-03-06T01:13:13.550Z,100709.59
2019-03-06T01:15:44.944Z,100706.50
2019-03-06T01:18:16.354Z,100702.59
2019-03-06T01:20:47.803Z,100704.77
2019-03-06T01:23:19.214Z,100705.69
2019-03-06T01:25:50.580Z,100707.38
2019-03-06T01:28:21.920Z,100714.52
2019-03-06T01:30:53.348Z,100718.42
2019-03-06T01:33:49.761Z,100715.44
2019-03-06T01:36:40.073Z,100712.83
2019-03-06T01:39:43.035Z,100722.16
2019-03-06T01:42:36.798Z,100727.47
2019-03-06T01:45:10.324Z,100720.17
2019-03-06T01:47:41.729Z,100713.52
2019-03-06T01:50:14.776Z,100719.02
2019-03-06T01:52:46.294Z,100721.95
2019-03-06T01:55:17.557Z,100712.30
2019-03-06T01:57:48.804Z,100714.80
2019-03-06T02:00:20.259Z,100725.23
2019-03-06T02:02:52.295Z,100718.22
2019-03-06T02:05:23.621Z,100721.22
2019-03-06T02:07:55.125Z,100715.48
2019-03-06T02:10:26.488Z,100714.70
2019-03-06T02:12:57.805Z,100711.99
2019-03-06T02:15:29.184Z,100717.06
2019-03-06T02:18:00.495Z,100710.16
2019-03-06T02:20:31.911Z,100712.38
2019-03-06T02:23:03.325Z,100708.86
2019-03-06T02:25:34.666Z,100711.08
2019-03-06T02:28:06.001Z,100712.88
2019-03-06T02:30:37.206Z,100707.17
2019-03-06T02:33:08.657Z,100701.05
2019-03-06T02:35:40.160Z,100697.23
2019-03-06T02:38:11.427Z,100699.56
2019-03-06T02:40:42.695Z,100700.09
2019-03-06T02:43:14.075Z,100693.28
2019-03-06T02:45:45.400Z,100694.27
2019-03-06T02:48:16.729Z,100686.98
2019-03-06T02:50:48.024Z,100687.99
2019-03-06T02:53:19.618Z,100685.38
2019-03-06T02:55:50.942Z,100687.60
2019-03-06T02:58:27.331Z,100684.57
2019-03-06T03:01:16.573Z,100686.79
2019-03-06T03:04:08.340Z,100694.61
2019-03-06T03:06:43.645Z,100692.91
2019-03-06T03:09:17.500Z,100689.78
2019-03-06T03:11:48.829Z,100691.90
2019-03-06T03:14:20.143Z,100697.50
2019-03-06T03:16:51.464Z,100695.81
2019-03-06T03:19:22.766Z,100695.28
2019-03-06T03:21:55.426Z,100697.39
2019-03-06T03:24:26.689Z,100692.96
2019-03-06T03:26:57.985Z,100691.98
2019-03-06T03:29:29.245Z,100690.05
2019-03-06T03:32:00.583Z,100689.42
2019-03-06T03:34:32.583Z,100685.94
2019-03-06T03:37:04.037Z,100685.02
2019-03-06T03:39:35.424Z,100679.28
2019-03-06T03:42:06.716Z,100680.20
2019-03-06T03:44:39.037Z,100681.50
2019-03-06T03:47:10.345Z,100676.19
2019-03-06T03:49:41.652Z,100671.80
2019-03-06T03:52:12.985Z,100672.67
2019-03-06T03:54:44.259Z,100677.50
2019-03-06T03:57:16.102Z,100680.00
2019-03-06T03:59:47.524Z,100667.89
2019-03-06T04:02:18.824Z,100666.16
2019-03-06T04:04:50.137Z,100662.67
2019-03-06T04:07:21.732Z,100662.67
2019-03-06T04:09:53.038Z,100660.17
2019-03-06T04:12:24.419Z,100663.16
2019-03-06T04:14:55.674Z,100663.16
2019-03-06T04:17:26.891Z,100659.26
2019-03-06T04:19:58.251Z,100662.88
2019-03-06T04:22:29.534Z,100654.67
2019-03-06T04:25:00.821Z,100660.27
2019-03-06T04:27:32.251Z,100664.67
2019-03-06T04:30:03.554Z,100655.98
2019-03-06T04:32:35.002Z,100656.86
2019-03-06T04:35:06.570Z,100660.27
2019-03-06T04:37:37.898Z,100660.27
2019-03-06T04:40:09.385Z,100656.37
2019-03-06T04:42:40.800Z,100663.38
2019-03-06T04:45:12.271Z,100660.27
2019-03-06T04:47:43.551Z,100666.78
2019-03-06T04:50:14.924Z,100664.18
2019-03-06T04:52:46.323Z,100654.16
2019-03-06T04:55:18.792Z,100655.84
2019-03-06T04:57:50.129Z,100651.05
2019-03-06T05:00:21.503Z,100645.31
2019-03-06T05:02:53.192Z,100648.73
2019-03-06T05:05:24.508Z,100649.94
2019-03-06T05:07:56.808Z,100654.13
2019-03-06T05:10:28.084Z,100657.02
2019-03-06T05:12:59.508Z,100656.00
2019-03-06T05:15:30.785Z,100661.50
2019-03-06T05:18:19.355Z,100660.87
2019-03-06T05:20:50.851Z,100664.29
2019-03-06T05:23:22.488Z,100659.27
2019-03-06T05:25:54.442Z,100662.78
2019-03-06T05:28:25.809Z,100658.63
2019-03-06T05:30:57.070Z,100650.72
2019-03-06T05:33:28.774Z,100654.52
2019-03-06T05:36:39.823Z,100650.09
2019-03-06T05:39:11.974Z,100645.30
2019-03-06T05:41:43.425Z,100649.50
2019-03-06T05:44:14.711Z,100645.98
2019-03-06T05:46:46.267Z,100640.77
2019-03-06T05:49:17.554Z,100636.77
2019-03-06T05:51:48.976Z,100636.77
2019-03-06T05:54:20.300Z,100636.66
2019-03-06T05:56:51.579Z,100632.75
2019-03-06T05:59:23.072Z,100631.45
2019-03-06T06:01:54.484Z,100633.04
2019-03-06T06:04:25.785Z,100638.63
2019-03-06T06:06:57.173Z,100640.75
2019-03-06T06:09:29.328Z,100642.05
2019-03-06T06:12:00.702Z,100639.73
2019-03-06T06:14:31.940Z,100638.05
2019-03-06T06:17:03.287Z,100635.83
2019-03-06T06:19:34.516Z,100639.83
2019-03-06T06:22:12.319Z,100634.14
2019-03-06T06:24:43.660Z,100622.80
2019-03-06T06:27:14.949Z,100618.09
2019-03-06T06:29:46.707Z,100620.30
2019-03-06T06:32:18.201Z,100619.92
2019-03-06T06:34:50.753Z,100619.11
2019-03-06T06:37:22.180Z,100615.73
2019-03-06T06:39:53.570Z,100621.14
2019-03-06T06:42:25.063Z,100619.02
2019-03-06T06:44:56.550Z,100615.84
2019-03-06T06:47:27.932Z,100610.88
2019-03-06T06:49:59.347Z,100612.48
2019-03-06T06:53:06.419Z,100603.71
2019-03-06T06:56:22.978Z,100599.61
2019-03-06T06:59:05.221Z,100599.43
2019-03-06T07:02:21.476Z,100587.62
2019-03-06T07:05:22.951Z,100586.52
2019-03-06T07:08:16.305Z,100593.66
2019-03-06T07:11:09.844Z,100598.57
2019-03-06T07:13:59.681Z,100606.20
2019-03-06T07:17:05.312Z,100606.92
2019-03-06T07:19:40.833Z,100597.09
2019-03-06T07:22:17.420Z,100591.39
2019-03-06T07:25:13.527Z,100597.75
2019-03-06T07:28:10.134Z,100594.17
2019-03-06T07:31:03.413Z,100588.77
2019-03-06T07:34:06.695Z,100581.76
2019-03-06T07:37:05.970Z,100584.17
2019-03-06T07:39:53.365Z,100580.98
2019-03-06T07:42:42.508Z,100579.96
2019-03-06T07:45:53.137Z,100577.16
2019-03-06T07:48:38.205Z,100576.27
2019-03-06T07:51:28.445Z,100572.87
2019-03-06T07:54:09.104Z,100560.25
2019-03-06T07:56:47.225Z,100553.80
2019-03-06T07:59:18.586Z,100556.53
2019-03-06T08:01:53.744Z,100548.29
2019-03-06T08:04:25.262Z,100547.48
2019-03-06T08:07:01.896Z,100537.45
2019-03-06T08:09:33.435Z,100544.34
2019-03-06T08:12:14.828Z,100539.92
2019-03-06T08:15:23.419Z,100537.61
2019-03-06T08:18:13.638Z,100529.27
2019-03-06T08:21:01.406Z,100533.25
2019-03-06T08:24:00.792Z,100524.11
2019-03-06T08:26:32.185Z,100522.77
2019-03-06T08:29:03.586Z,100501.44
2019-03-06T08:31:40.766Z,100488.37
2019-03-06T08:34:12.167Z,100494.77
2019-03-06T08:36:43.574Z,100504.29
2019-03-06T08:39:22.164Z,100501.94
2019-03-06T08:41:53.539Z,100491.36
2019-03-06T08:44:24.834Z,100491.25
2019-03-06T08:47:23.643Z,100499.95
2019-03-06T08:50:14.518Z,100498.20
2019-03-06T08:53:07.848Z,100503.48
2019-03-06T08:56:01.087Z,100496.50
2019-03-06T08:58:45.159Z,100497.04
2019-03-06T09:01:59.738Z,100494.05
2019-03-06T09:04:40.790Z,100501.20
2019-03-06T09:07:21.430Z,100498.72
2019-03-06T09:10:20.552Z,100495.88
2019-03-06T09:13:23.365Z,100492.95
2019-03-06T09:16:16.783Z,100487.09
2019-03-06T09:19:10.048Z,100478.03
2019-03-06T09:22:03.441Z,100476.01
2019-03-06T09:24:50.590Z,100476.52
2019-03-06T09:27:39.615Z,100466.45
2019-03-06T09:30:39.974Z,100468.27
2019-03-06T09:33:19.830Z,100452.23
2019-03-06T09:36:19.255Z,100450.58
2019-03-06T09:39:16.819Z,100455.51
2019-03-06T09:42:00.966Z,100452.13
2019-03-06T09:44:48.305Z,100443.03
2019-03-06T09:47:36.524Z,100442.20
2019-03-06T09:50:30.010Z,100440.44
2019-03-06T09:53:29.390Z,100434.68
2019-03-06T09:56:25.682Z,100430.33
2019-03-06T09:59:15.900Z,100425.95
2019-03-06T10:02:15.359Z,100416.31
2019-03-06T10:05:04.407Z,100406.70
2019-03-06T10:07:48.033Z,100403.72
2019-03-06T10:10:45.742Z,100394.91
2019-03-06T10:13:22.831Z,100389.69
2019-03-06T10:15:59.125Z,100379.05
2019-03-06T10:18:55.365Z,100383.28
2019-03-06T10:21:26.742Z,100373.42
2019-03-06T10:23:58.593Z,100375.56
2019-03-06T10:26:29.912Z,100372.89
2019-03-06T10:29:01.529Z,100378.46
2019-03-06T10:31:32.960Z,100375.44
2019-03-06T10:34:04.199Z,100372.76
2019-03-06T10:36:35.720Z,100367.47
2019-03-06T10:39:07.706Z,100370.95
2019-03-06T10:41:40.806Z,100360.83
2019-03-06T10:44:12.266Z,100357.13
2019-03-06T10:46:43.668Z,100354.84
2019-03-06T10:49:15.210Z,100367.91
2019-03-06T10:51:46.601Z,100355.09
2019-03-06T10:54:17.973Z,100356.18
2019-03-06T10:56:49.247Z,100344.27
2019-03-06T10:59:20.580Z,100330.05
2019-03-06T11:01:51.950Z,100336.95
2019-03-06T11:04:41.105Z,100322.24
2019-03-06T11:07:12.678Z,100327.83
2019-03-06T11:09:44.202Z,100317.14
2019-03-06T11:12:15.838Z,100309.97
2019-03-06T11:14:47.174Z,100302.28
2019-03-06T11:17:18.499Z,100307.80
2019-03-06T11:19:50.291Z,100286.93
2019-03-06T11:22:21.973Z,100281.42
2019-03-06T11:24:53.330Z,100285.16
2019-03-06T11:27:24.911Z,100286.67
2019-03-06T11:29:56.291Z,100268.89
2019-03-06T11:32:27.846Z,100274.00
2019-03-06T11:34:59.650Z,100265.98
2019-03-06T11:37:31.437Z,100261.90
2019-03-06T11:40:03.506Z,100257.01
2019-03-06T11:42:34.976Z,100252.89
2019-03-06T11:45:06.599Z,100255.80
2019-03-06T11:47:38.122Z,100259.61
2019-03-06T11:50:10.364Z,100249.38
2019-03-06T11:52:41.913Z,100247.42
2019-03-06T11:55:13.812Z,100238.91
2019-03-06T11:57:46.127Z,100230.36
2019-03-06T12:00:37.911Z,100232.80
2019-03-06T12:03:09.431Z,100225.06
2019-03-06T12:05:41.074Z,100228.03
2019-03-06T12:08:14.368Z,100213.69
2019-03-06T12:10:46.043Z,100207.83
2019-03-06T12:13:17.754Z,100219.05
2019-03-06T12:15:50.456Z,100217.06
2019-03-06T12:18:23.102Z,100206.26
2019-03-06T12:20:54.857Z,100194.20
2019-03-06T12:23:26.362Z,100203.23
2019-03-06T12:25:57.833Z,100205.73
2019-03-06T12:28:29.205Z,100202.08
2019-03-06T12:31:00.791Z,100192.26
2019-03-06T12:33:32.404Z,100177.08
2019-03-06T12:36:05.622Z,100167.66
2019-03-06T12:38:37.101Z,100158.67
2019-03-06T12:41:08.667Z,100133.77
2019-03-06T12:43:40.047Z,100138.87
2019-03-06T12:46:23.576Z,100132.08
2019-03-06T12:49:11.884Z,100119.61
2019-03-06T12:51:43.264Z,100117.67
2019-03-06T12:54:14.808Z,100121.70
2019-03-06T12:56:46.846Z,100121.80
2019-03-06T12:59:18.266Z,100113.98
2019-03-06T13:01:49.709Z,100105.27
2019-03-06T13:04:20.963Z,100107.14
2019-03-06T13:06:53.428Z,100093.09
2019-03-06T13:09:25.655Z,100072.46
2019-03-06T13:11:56.997Z,100068.13
2019-03-06T13:14:30.426Z,100055.47
2019-03-06T13:17:01.570Z,100057.36
2019-03-06T13:19:33.030Z,100051.81
2019-03-06T13:22:11.058Z,100041.84
2019-03-06T13:24:37.606Z,100039.04
2019-03-06T13:27:09.020Z,100024.28
2019-03-06T13:29:40.382Z,100011.06
2019-03-06T13:32:12.369Z,100011.59
2019-03-06T13:34:57.189Z,100002.47
2019-03-06T13:37:28.395Z,99990.57
2019-03-06T13:39:59.718Z,99979.09
2019-03-06T13:42:31.213Z,99977.22
2019-03-06T13:45:02.534Z,99958.90
2019-03-06T13:47:34.792Z,99960.37
2019-03-06T13:50:06.641Z,99961.84
2019-03-06T13:52:37.965Z,99948.64
2019-03-06T13:55:09.592Z,99945.14
2019-03-06T13:57:41.091Z,99951.80
2019-03-06T14:00:15.322Z,99939.41
2019-03-06T14:02:49.808Z,99934.52
2019-03-06T14:05:21.654Z,99932.73
2019-03-06T14:07:56.480Z,99925.54
2019-03-06T14:10:26.031Z,99924.19
2019-03-06T14:12:57.482Z,99923.28
2019-03-06T14:15:28.781Z,99917.08
2019-03-06T14:18:00.020Z,99918.45
2019-03-06T14:20:31.299Z,99907.41
2019-03-06T14:23:02.586Z,99904.36
2019-03-06T14:25:34.867Z,99902.61
2019-03-06T14:28:06.461Z,99901.70
2019-03-06T14:30:37.800Z,99897.27
2019-03-06T14:33:09.183Z,99893.22
2019-03-06T14:35:40.494Z,99887.84
2019-03-06T14:38:11.784Z,99881.53
2019-03-06T14:40:43.677Z,99879.20
2019-03-06T14:43:15.222Z,99866.23
2019-03-06T14:45:46.559Z,99861.16
2019-03-06T14:48:17.934Z,99858.28
2019-03-06T14:50:49.384Z,99851.45
2019-03-06T14:53:20.783Z,99843.72
2019-03-06T14:55:52.366Z,99821.42
2019-03-06T14:58:23.682Z,99832.25
2019-03-06T15:00:55.385Z,99825.90
2019-03-06T15:03:27.654Z,99827.98
2019-03-06T15:05:58.975Z,99832.20
2019-03-06T15:08:30.218Z,99835.58
2019-03-06T15:11:02.611Z,99822.68
2019-03-06T15:13:34.858Z,99810.23
2019-03-06T15:16:06.165Z,99815.02
2019-03-06T15:18:37.480Z,99811.34
2019-03-06T15:21:08.823Z,99807.73
2019-03-06T15:23:40.049Z,99805.52
2019-03-06T15:26:11.760Z,99802.86
2019-03-06T15:28:43.042Z,99800.75
2019-03-06T15:31:14.355Z,99798.74
2019-03-06T15:33:45.686Z,99785.33
2019-03-06T15:36:16.985Z,99782.62
2019-03-06T15:38:48.612Z,99783.80
2019-03-06T15:41:19.960Z,99775.23
2019-03-06T15:43:51.296Z,99771.50
2019-03-06T15:46:22.600Z,99773.44
2019-03-06T15:48:53.846Z,99766.88
2019-03-06T15:51:25.363Z,99759.34
2019-03-06T15:53:56.670Z,99762.41
2019-03-06T15:56:28.394Z,99757.02
2019-03-06T15:58:59.723Z,99746.69
2019-03-06T16:01:31.025Z,99746.95
2019-03-06T16:04:02.366Z,99738.78
2019-03-06T16:06:33.642Z,99729.31
2019-03-06T16:09:06.948Z,99726.83
2019-03-06T16:11:39.517Z,99724.34
2019-03-06T16:14:12.579Z,99730.76
2019-03-06T16:16:43.885Z,99726.13
2019-03-06T16:19:15.176Z,99719.25
2019-03-06T16:21:47.512Z,99711.94
2019-03-06T16:24:24.185Z,99713.43
2019-03-06T16:26:55.581Z,99712.77
2019-03-06T16:29:26.921Z,99708.57
2019-03-06T16:31:58.172Z,99706.19
2019-03-06T16:34:29.518Z,99708.23
2019-03-06T16:37:00.977Z,99704.11
2019-03-06T16:39:32.687Z,99710.08
2019-03-06T16:42:04.297Z,99713.89
2019-03-06T16:44:36.131Z,99707.98
2019-03-06T16:47:07.735Z,99710.87
2019-03-06T16:49:40.921Z,99704.11
2019-03-06T16:52:12.847Z,99704.35
2019-03-06T16:54:44.446Z,99696.72
2019-03-06T16:57:15.881Z,99694.87
2019-03-06T16:59:47.445Z,99701.34
2019-03-06T17:02:19.048Z,99689.37
2019-03-06T17:04:50.609Z,99680.37
2019-03-06T17:07:22.188Z,99669.20
2019-03-06T17:09:53.792Z,99661.59
2019-03-06T17:12:25.565Z,99674.63
2019-03-06T17:14:57.156Z,99677.12
2019-03-06T17:17:29.263Z,99688.02
2019-03-06T17:20:01.143Z,99687.87
2019-03-06T17:22:34.121Z,99679.89
2019-03-06T17:25:07.136Z,99672.72
2019-03-06T17:27:38.752Z,99677.05
2019-03-06T17:30:12.503Z,99676.50
2019-03-06T17:33:01.360Z,99686.10
2019-03-06T17:35:33.282Z,99676.26
2019-03-06T17:38:05.716Z,99684.50
2019-03-06T17:40:37.128Z,99683.96
2019-03-06T17:43:09.961Z,99675.95
2019-03-06T17:45:41.337Z,99672.34
2019-03-06T17:48:12.618Z,99653.41
2019-03-06T17:50:44.074Z,99652.47
2019-03-06T17:53:15.404Z,99657.23
2019-03-06T17:55:46.655Z,99659.39
2019-03-06T17:58:17.926Z,99650.55
2019-03-06T18:00:51.967Z,99643.89
2019-03-06T18:03:31.911Z,99646.05
2019-03-06T18:06:06.385Z,99655.19
2019-03-06T18:08:38.034Z,99647.20
2019-03-06T18:11:09.542Z,99651.91
2019-03-06T18:13:44.337Z,99645.66
2019-03-06T18:16:15.650Z,99641.64
2019-03-06T18:18:46.967Z,99636.76
2019-03-06T18:21:18.732Z,99637.49
2019-03-06T18:23:50.193Z,99640.06
2019-03-06T18:26:21.582Z,99635.17
2019-03-06T18:28:54.603Z,99624.53
2019-03-06T18:31:26.299Z,99622.25
2019-03-06T18:33:57.720Z,99620.90
2019-03-06T18:36:29.105Z,99612.93
2019-03-06T18:39:00.453Z,99616.39
2019-03-06T18:41:33.262Z,99621.63
2019-03-06T18:44:04.550Z,99613.70
2019-03-06T18:46:35.802Z,99609.30
2019-03-06T18:49:10.829Z,99600.45
2019-03-06T18:51:43.281Z,99607.05
2019-03-06T18:54:14.572Z,99610.13
2019-03-06T18:56:45.973Z,99607.05
2019-03-06T18:59:18.577Z,99608.36
2019-03-06T19:01:50.034Z,99607.88
2019-03-06T19:04:21.374Z,99615.36
2019-03-06T19:06:52.758Z,99619.73
2019-03-06T19:09:24.305Z,99623.27
2019-03-06T19:11:56.133Z,99615.36
2019-03-06T19:14:29.436Z,99612.76
2019-03-06T19:17:00.493Z,99595.25
2019-03-06T19:19:31.897Z,99595.25
2019-03-06T19:22:03.421Z,99599.69
2019-03-06T19:24:34.741Z,99596.63
2019-03-06T19:27:06.214Z,99588.28
2019-03-06T19:29:37.607Z,99583.45
2019-03-06T19:32:09.005Z,99578.19
2019-03-06T19:34:40.381Z,99586.58
2019-03-06T19:37:11.749Z,99595.80
2019-03-06T19:39:44.035Z,99604.13
2019-03-06T19:42:15.797Z,99595.80
2019-03-06T19:44:49.528Z,99590.11
2019-03-06T19:47:20.863Z,99598.88
2019-03-06T19:49:52.411Z,99589.23
2019-03-06T19:52:23.755Z,99582.66
2019-03-06T19:54:55.100Z,99566.87
2019-03-06T19:57:27.498Z,99572.66
2019-03-06T20:00:00.013Z,99572.69
2019-03-06T20:02:31.460Z,99567.86
2019-03-06T20:05:02.914Z,99565.33
2019-03-06T20:07:35.484Z,99575.48
2019-03-06T20:10:06.846Z,99571.98
2019-03-06T20:12:39.445Z,99563.23
2019-03-06T20:15:10.825Z,99572.91
2019-03-06T20:17:42.337Z,99555.81
2019-03-06T20:20:13.907Z,99547.09
2019-03-06T20:22:45.766Z,99546.64
2019-03-06T20:25:18.721Z,99544.91
2019-03-06T20:27:50.292Z,99537.88
2019-03-06T20:30:22.039Z,99528.19
2019-03-06T20:32:53.377Z,99527.70
2019-03-06T20:35:25.239Z,99525.49
2019-03-06T20:37:58.675Z,99531.22
2019-03-06T20:40:31.939Z,99519.74
2019-03-06T20:43:10.624Z,99511.33
2019-03-06T20:45:47.332Z,99504.70
2019-03-06T20:48:19.612Z,99504.22
2019-03-06T20:50:51.719Z,99494.49
2019-03-06T20:53:23.208Z,99493.95
2019-03-06T20:55:54.582Z,99493.44
2019-03-06T20:58:25.890Z,99487.20
2019-03-06T21:00:57.733Z,99488.88
2019-03-06T21:03:29.290Z,99491.45
2019-03-06T21:06:00.638Z,99484.75
2019-03-06T21:08:32.025Z,99487.77
2019-03-06T21:11:06.280Z,99486.39
2019-03-06T21:13:42.186Z,99481.92
2019-03-06T21:16:20.408Z,99485.45
2019-03-06T21:18:59.143Z,99475.30
2019-03-06T21:21:33.871Z,99473.06
2019-03-06T21:24:05.197Z,99464.61
2019-03-06T21:26:36.427Z,99456.65
2019-03-06T21:29:07.689Z,99450.94
2019-03-06T21:31:39.019Z,99448.69
2019-03-06T21:34:10.347Z,99437.19
2019-03-06T21:36:41.661Z,99437.55
2019-03-06T21:39:25.837Z,99428.72
2019-03-06T21:41:57.157Z,99429.55
2019-03-06T21:44:28.411Z,99429.48
2019-03-06T21:46:59.725Z,99422.88
2019-03-06T21:49:31.167Z,99420.20
2019-03-06T21:52:02.714Z,99410.86
2019-03-06T21:54:34.232Z,99418.25
2019-03-06T21:57:05.588Z,99418.19
2019-03-06T21:59:37.011Z,99408.94
2019-03-06T22:02:08.218Z,99410.26
2019-03-06T22:04:39.532Z,99412.89
2019-03-06T22:07:10.899Z,99411.54
2019-03-06T22:09:42.313Z,99407.11
2019-03-06T22:12:13.605Z,99398.80
2019-03-06T22:14:44.921Z,99395.27
2019-03-06T22:17:16.301Z,99386.92
2019-03-06T22:19:47.719Z,99385.60
2019-03-06T22:22:19.004Z,99384.73
2019-03-06T22:24:50.330Z,99382.07
2019-03-06T22:27:21.570Z,99382.88
2019-03-06T22:29:53.126Z,99382.42
2019-03-06T22:32:24.365Z,99379.34
2019-03-06T22:34:55.585Z,99381.08
2019-03-06T22:37:26.841Z,99371.87
2019-03-06T22:39:58.096Z,99370.52
2019-03-06T22:42:29.437Z,99374.88
2019-03-06T22:45:00.750Z,99389.77
2019-03-06T22:47:32.085Z,99396.74
2019-03-06T22:50:03.415Z,99391.03
2019-03-06T22:52:34.838Z,99392.31
2019-03-06T22:55:06.793Z,99389.61
2019-03-06T22:57:38.011Z,99389.61
2019-03-06T23:00:32.541Z,99379.09
2019-03-06T23:03:06.167Z,99376.87
2019-03-06T23:05:37.415Z,99379.51
2019-03-06T23:08:08.696Z,99378.58
2019-03-06T23:10:42.057Z,99374.14
2019-03-06T23:13:13.635Z,99373.28
2019-03-06T23:15:45.285Z,99373.28
2019-03-06T23:18:16.631Z,99367.50
2019-03-06T23:20:47.850Z,99370.10
2019-03-06T23:23:19.176Z,99360.44
2019-03-06T23:25:51.508Z,99359.55
2019-03-06T23:28:22.812Z,99359.55
2019-03-06T23:30:54.130Z,99359.06
2019-03-06T23:33:27.643Z,99357.30
2019-03-06T23:35:58.905Z,99356.33
2019-03-06T23:38:30.226Z,99358.96
2019-03-06T23:41:01.425Z,99350.17
2019-03-06T23:43:32.715Z,99350.94
2019-03-06T23:46:04.028Z,99346.55
2019-03-06T23:48:35.249Z,99342.08
2019-03-06T23:51:24.249Z,99336.79
2019-03-06T23:53:56.015Z,99327.09
2019-03-06T23:56:27.366Z,99327.97
2019-03-06T23:58:58.716Z,99322.22
